sensor_id;sensor_type;location;lat;lon;timestamp;pressure;altitude;pressure_sealevel;temperature;humidity
27304;BME280;14791;52.392;13.092;2022-07-22T00:01:48;101285.75;;;25.99;51.60
27304;BME280;14791;52.392;13.092;2022-07-22T00:04:17;101286.12;;;25.96;51.55
27304;BME280;14791;52.392;13.092;2022-07-22T00:06:46;101285.30;;;25.92;51.60
27304;BME280;14791;52.392;13.092;2022-07-22T00:09:15;101282.05;;;25.88;51.62
27304;BME280;14791;52.392;13.092;2022-07-22T00:11:44;101283.24;;;25.85;51.63
27304;BME280;14791;52.392;13.092;2022-07-22T00:14:13;101285.83;;;25.83;51.68
27304;BME280;14791;52.392;13.092;2022-07-22T00:16:42;101292.87;;;25.81;51.68
27304;BME280;14791;52.392;13.092;2022-07-22T00:19:11;101294.09;;;25.79;51.70
27304;BME280;14791;52.392;13.092;2022-07-22T00:21:40;101293.73;;;25.78;51.70
27304;BME280;14791;52.392;13.092;2022-07-22T00:24:09;101294.10;;;25.75;51.73
27304;BME280;14791;52.392;13.092;2022-07-22T00:26:39;101294.80;;;25.73;51.74
27304;BME280;14791;52.392;13.092;2022-07-22T00:29:08;101293.80;;;25.70;51.78
27304;BME280;14791;52.392;13.092;2022-07-22T00:31:37;101298.23;;;25.66;51.84
27304;BME280;14791;52.392;13.092;2022-07-22T00:34:06;101299.66;;;25.62;51.88
27304;BME280;14791;52.392;13.092;2022-07-22T00:36:35;101301.19;;;25.61;51.92
27304;BME280;14791;52.392;13.092;2022-07-22T00:39:04;101299.34;;;25.57;51.94
27304;BME280;14791;52.392;13.092;2022-07-22T00:41:33;101297.98;;;25.57;51.94
27304;BME280;14791;52.392;13.092;2022-07-22T00:44:05;101300.88;;;25.56;51.95
27304;BME280;14791;52.392;13.092;2022-07-22T00:46:36;101303.27;;;25.55;51.93
27304;BME280;14791;52.392;13.092;2022-07-22T00:49:06;101303.78;;;25.54;51.87
27304;BME280;14791;52.392;13.092;2022-07-22T00:51:37;101306.89;;;25.51;51.81
27304;BME280;14791;52.392;13.092;2022-07-22T00:54:07;101302.63;;;25.49;51.86
27304;BME280;14791;52.392;13.092;2022-07-22T00:56:37;101301.11;;;25.46;51.81
27304;BME280;14791;52.392;13.092;2022-07-22T00:59:08;101302.64;;;25.44;51.87
27304;BME280;14791;52.392;13.092;2022-07-22T01:01:37;101310.36;;;25.41;51.98
27304;BME280;14791;52.392;13.092;2022-07-22T01:04:06;101306.10;;;25.38;52.02
27304;BME280;14791;52.392;13.092;2022-07-22T01:06:36;101304.73;;;25.38;52.06
27304;BME280;14791;52.392;13.092;2022-07-22T01:09:05;101306.59;;;25.38;52.04
27304;BME280;14791;52.392;13.092;2022-07-22T01:11:33;101311.42;;;25.36;52.04
27304;BME280;14791;52.392;13.092;2022-07-22T01:14:03;101309.89;;;25.33;52.08
27304;BME280;14791;52.392;13.092;2022-07-22T01:16:32;101314.16;;;25.32;52.11
27304;BME280;14791;52.392;13.092;2022-07-22T01:19:01;101309.55;;;25.28;52.18
27304;BME280;14791;52.392;13.092;2022-07-22T01:21:30;101308.02;;;25.25;52.25
27304;BME280;14791;52.392;13.092;2022-07-22T01:23:59;101316.42;;;25.24;52.26
27304;BME280;14791;52.392;13.092;2022-07-22T01:26:28;101303.44;;;25.22;52.35
27304;BME280;14791;52.392;13.092;2022-07-22T01:28:57;101313.85;;;25.22;52.40
27304;BME280;14791;52.392;13.092;2022-07-22T01:31:26;101311.11;;;25.22;52.32
27304;BME280;14791;52.392;13.092;2022-07-22T01:33:56;101313.00;;;25.22;52.35
27304;BME280;14791;52.392;13.092;2022-07-22T01:36:26;101306.34;;;25.20;52.40
27304;BME280;14791;52.392;13.092;2022-07-22T01:38:56;101310.44;;;25.20;52.46
27304;BME280;14791;52.392;13.092;2022-07-22T01:41:25;101306.02;;;25.19;52.43
27304;BME280;14791;52.392;13.092;2022-07-22T01:43:54;101301.23;;;25.17;52.51
27304;BME280;14791;52.392;13.092;2022-07-22T01:46:23;101302.60;;;25.17;52.52
27304;BME280;14791;52.392;13.092;2022-07-22T01:48:52;101296.42;;;25.15;52.56
27304;BME280;14791;52.392;13.092;2022-07-22T01:51:22;101301.89;;;25.15;52.53
27304;BME280;14791;52.392;13.092;2022-07-22T01:53:51;101300.69;;;25.14;52.63
27304;BME280;14791;52.392;13.092;2022-07-22T01:56:20;101304.98;;;25.12;52.67
27304;BME280;14791;52.392;13.092;2022-07-22T01:58:50;101300.20;;;25.10;52.65
27304;BME280;14791;52.392;13.092;2022-07-22T02:01:20;101302.25;;;25.08;52.74
27304;BME280;14791;52.392;13.092;2022-07-22T02:03:49;101307.39;;;25.07;52.79
27304;BME280;14791;52.392;13.092;2022-07-22T02:06:18;101302.94;;;25.06;52.85
27304;BME280;14791;52.392;13.092;2022-07-22T02:08:48;101302.09;;;25.05;52.85
27304;BME280;14791;52.392;13.092;2022-07-22T02:11:33;101306.36;;;25.04;52.83
27304;BME280;14791;52.392;13.092;2022-07-22T02:14:02;101304.34;;;24.98;52.87
27304;BME280;14791;52.392;13.092;2022-07-22T02:16:31;101301.94;;;24.95;52.96
27304;BME280;14791;52.392;13.092;2022-07-22T02:19:00;101300.58;;;24.95;52.97
27304;BME280;14791;52.392;13.092;2022-07-22T02:21:30;101302.98;;;24.94;52.97
27304;BME280;14791;52.392;13.092;2022-07-22T02:23:59;101303.34;;;24.91;53.00
27304;BME280;14791;52.392;13.092;2022-07-22T02:26:28;101303.50;;;24.89;53.00
27304;BME280;14791;52.392;13.092;2022-07-22T02:28:57;101297.55;;;24.86;53.04
27304;BME280;14791;52.392;13.092;2022-07-22T02:31:27;101304.70;;;24.82;53.11
27304;BME280;14791;52.392;13.092;2022-07-22T02:33:55;101306.76;;;24.80;53.16
27304;BME280;14791;52.392;13.092;2022-07-22T02:36:26;101308.16;;;24.76;53.20
27304;BME280;14791;52.392;13.092;2022-07-22T02:38:55;101315.66;;;24.74;53.25
27304;BME280;14791;52.392;13.092;2022-07-22T02:41:24;101313.30;;;24.71;53.31
27304;BME280;14791;52.392;13.092;2022-07-22T02:43:55;101300.31;;;24.69;53.33
27304;BME280;14791;52.392;13.092;2022-07-22T02:46:25;101307.98;;;24.66;53.38
27304;BME280;14791;52.392;13.092;2022-07-22T02:48:57;101312.77;;;24.63;53.42
27304;BME280;14791;52.392;13.092;2022-07-22T02:51:27;101314.64;;;24.59;53.51
27304;BME280;14791;52.392;13.092;2022-07-22T02:53:56;101309.54;;;24.56;53.54
27304;BME280;14791;52.392;13.092;2022-07-22T02:56:25;101312.63;;;24.53;53.61
27304;BME280;14791;52.392;13.092;2022-07-22T02:58:55;101310.25;;;24.50;53.70
27304;BME280;14791;52.392;13.092;2022-07-22T03:01:25;101310.08;;;24.47;53.82
27304;BME280;14791;52.392;13.092;2022-07-22T03:03:58;101314.66;;;24.47;53.84
27304;BME280;14791;52.392;13.092;2022-07-22T03:06:27;101315.66;;;24.46;53.95
27304;BME280;14791;52.392;13.092;2022-07-22T03:09:07;101314.98;;;24.44;54.04
27304;BME280;14791;52.392;13.092;2022-07-22T03:11:36;101314.81;;;24.41;54.07
27304;BME280;14791;52.392;13.092;2022-07-22T03:14:06;101321.64;;;24.41;54.05
27304;BME280;14791;52.392;13.092;2022-07-22T03:16:35;101315.34;;;24.40;54.11
27304;BME280;14791;52.392;13.092;2022-07-22T03:19:05;101316.34;;;24.39;54.17
27304;BME280;14791;52.392;13.092;2022-07-22T03:21:34;101322.84;;;24.38;54.23
27304;BME280;14791;52.392;13.092;2022-07-22T03:24:03;101314.64;;;24.38;54.24
27304;BME280;14791;52.392;13.092;2022-07-22T03:26:33;101318.74;;;24.38;54.29
27304;BME280;14791;52.392;13.092;2022-07-22T03:29:02;101316.86;;;24.39;54.32
27304;BME280;14791;52.392;13.092;2022-07-22T03:31:31;101317.38;;;24.38;54.35
27304;BME280;14791;52.392;13.092;2022-07-22T03:34:00;101324.89;;;24.40;54.36
27304;BME280;14791;52.392;13.092;2022-07-22T03:36:30;101326.58;;;24.41;54.37
27304;BME280;14791;52.392;13.092;2022-07-22T03:39:00;101329.16;;;24.43;54.33
27304;BME280;14791;52.392;13.092;2022-07-22T03:41:29;101330.84;;;24.44;54.32
27304;BME280;14791;52.392;13.092;2022-07-22T03:43:58;101330.36;;;24.45;54.25
27304;BME280;14791;52.392;13.092;2022-07-22T03:46:28;101333.58;;;24.44;54.26
27304;BME280;14791;52.392;13.092;2022-07-22T03:48:57;101331.72;;;24.45;54.22
27304;BME280;14791;52.392;13.092;2022-07-22T03:53:59;101332.77;;;24.48;54.22
27304;BME280;14791;52.392;13.092;2022-07-22T03:56:29;101335.83;;;24.49;54.21
27304;BME280;14791;52.392;13.092;2022-07-22T03:58:58;101333.45;;;24.50;54.17
27304;BME280;14791;52.392;13.092;2022-07-22T04:01:27;101343.51;;;24.53;54.10
27304;BME280;14791;52.392;13.092;2022-07-22T04:03:57;101337.52;;;24.54;54.02
27304;BME280;14791;52.392;13.092;2022-07-22T04:06:30;101342.31;;;24.56;54.04
27304;BME280;14791;52.392;13.092;2022-07-22T04:09:01;101343.16;;;24.56;54.08
27304;BME280;14791;52.392;13.092;2022-07-22T04:11:30;101336.16;;;24.58;54.09
27304;BME280;14791;52.392;13.092;2022-07-22T04:13:59;101344.37;;;24.62;54.04
27304;BME280;14791;52.392;13.092;2022-07-22T04:16:28;101348.44;;;24.66;54.00
27304;BME280;14791;52.392;13.092;2022-07-22T04:19:03;101349.12;;;24.68;54.00
27304;BME280;14791;52.392;13.092;2022-07-22T04:21:43;101347.59;;;24.70;54.02
27304;BME280;14791;52.392;13.092;2022-07-22T04:24:12;101346.06;;;24.71;54.06
27304;BME280;14791;52.392;13.092;2022-07-22T04:26:41;101343.50;;;24.74;54.10
27304;BME280;14791;52.392;13.092;2022-07-22T04:29:11;101342.11;;;24.78;54.11
27304;BME280;14791;52.392;13.092;2022-07-22T04:31:40;101334.95;;;24.81;54.14
27304;BME280;14791;52.392;13.092;2022-07-22T04:34:10;101345.84;;;24.85;54.13
27304;BME280;14791;52.392;13.092;2022-07-22T04:36:39;101335.97;;;24.88;54.03
27304;BME280;14791;52.392;13.092;2022-07-22T04:39:09;101335.28;;;24.90;53.99
27304;BME280;14791;52.392;13.092;2022-07-22T04:41:40;101336.45;;;24.92;54.00
27304;BME280;14791;52.392;13.092;2022-07-22T04:44:09;101337.14;;;24.94;54.06
27304;BME280;14791;52.392;13.092;2022-07-22T04:46:38;101339.87;;;24.98;54.09
27304;BME280;14791;52.392;13.092;2022-07-22T04:49:07;101340.36;;;25.01;54.09
27304;BME280;14791;52.392;13.092;2022-07-22T04:51:36;101341.20;;;25.06;54.01
27304;BME280;14791;52.392;13.092;2022-07-22T04:54:06;101349.40;;;25.10;53.97
27304;BME280;14791;52.392;13.092;2022-07-22T04:56:36;101348.71;;;25.12;53.95
27304;BME280;14791;52.392;13.092;2022-07-22T04:59:05;101345.63;;;25.15;53.94
27304;BME280;14791;52.392;13.092;2022-07-22T05:01:35;101346.17;;;25.19;53.83
27304;BME280;14791;52.392;13.092;2022-07-22T05:04:04;101350.75;;;25.22;53.75
27304;BME280;14791;52.392;13.092;2022-07-22T05:06:34;101352.13;;;25.22;53.70
27304;BME280;14791;52.392;13.092;2022-07-22T05:09:04;101353.13;;;25.25;53.73
27304;BME280;14791;52.392;13.092;2022-07-22T05:11:33;101357.39;;;25.28;53.73
27304;BME280;14791;52.392;13.092;2022-07-22T05:14:03;101350.06;;;25.29;53.57
27304;BME280;14791;52.392;13.092;2022-07-22T05:16:34;101353.64;;;25.29;53.55
27304;BME280;14791;52.392;13.092;2022-07-22T05:19:05;101355.86;;;25.30;53.50
27304;BME280;14791;52.392;13.092;2022-07-22T05:21:34;101356.17;;;25.31;53.43
27304;BME280;14791;52.392;13.092;2022-07-22T05:24:04;101351.23;;;25.30;53.43
27304;BME280;14791;52.392;13.092;2022-07-22T05:26:33;101348.33;;;25.32;53.39
27304;BME280;14791;52.392;13.092;2022-07-22T05:29:02;101353.11;;;25.34;53.38
27304;BME280;14791;52.392;13.092;2022-07-22T05:31:31;101356.17;;;25.35;53.30
27304;BME280;14791;52.392;13.092;2022-07-22T05:34:00;101354.12;;;25.37;53.25
27304;BME280;14791;52.392;13.092;2022-07-22T05:36:32;101353.08;;;25.38;53.16
27304;BME280;14791;52.392;13.092;2022-07-22T05:39:01;101358.55;;;25.38;53.15
27304;BME280;14791;52.392;13.092;2022-07-22T05:41:31;101363.00;;;25.39;53.15
27304;BME280;14791;52.392;13.092;2022-07-22T05:44:01;101353.76;;;25.40;53.13
27304;BME280;14791;52.392;13.092;2022-07-22T05:46:32;101356.16;;;25.43;53.12
27304;BME280;14791;52.392;13.092;2022-07-22T05:49:01;101363.32;;;25.44;53.00
27304;BME280;14791;52.392;13.092;2022-07-22T05:51:32;101362.95;;;25.47;53.01
27304;BME280;14791;52.392;13.092;2022-07-22T05:54:03;101359.89;;;25.50;52.97
27304;BME280;14791;52.392;13.092;2022-07-22T05:56:32;101365.00;;;25.53;52.85
27304;BME280;14791;52.392;13.092;2022-07-22T05:59:01;101361.22;;;25.54;52.68
27304;BME280;14791;52.392;13.092;2022-07-22T06:01:30;101368.73;;;25.56;52.57
27304;BME280;14791;52.392;13.092;2022-07-22T06:04:00;101371.47;;;25.56;52.63
27304;BME280;14791;52.392;13.092;2022-07-22T06:06:30;101374.56;;;25.57;52.62
27304;BME280;14791;52.392;13.092;2022-07-22T06:08:59;101374.20;;;25.60;52.62
27304;BME280;14791;52.392;13.092;2022-07-22T06:11:28;101373.15;;;25.61;52.62
27304;BME280;14791;52.392;13.092;2022-07-22T06:13:59;101370.25;;;25.63;52.53
27304;BME280;14791;52.392;13.092;2022-07-22T06:16:28;101367.50;;;25.67;52.41
27304;BME280;14791;52.392;13.092;2022-07-22T06:18:59;101375.19;;;25.67;52.36
27304;BME280;14791;52.392;13.092;2022-07-22T06:21:29;101376.88;;;25.68;52.45
27304;BME280;14791;52.392;13.092;2022-07-22T06:23:59;101376.87;;;25.73;52.37
27304;BME280;14791;52.392;13.092;2022-07-22T06:26:27;101376.17;;;25.75;52.36
27304;BME280;14791;52.392;13.092;2022-07-22T06:28:56;101367.95;;;25.79;52.44
27304;BME280;14791;52.392;13.092;2022-07-22T06:31:26;101371.33;;;25.85;52.41
27304;BME280;14791;52.392;13.092;2022-07-22T06:33:55;101366.55;;;25.91;52.29
27304;BME280;14791;52.392;13.092;2022-07-22T06:36:25;101367.53;;;25.98;52.21
27304;BME280;14791;52.392;13.092;2022-07-22T06:38:54;101371.94;;;26.03;52.06
27304;BME280;14791;52.392;13.092;2022-07-22T06:41:27;101377.40;;;26.07;52.02
27304;BME280;14791;52.392;13.092;2022-07-22T06:44:04;101375.66;;;26.10;52.05
27304;BME280;14791;52.392;13.092;2022-07-22T06:46:38;101374.07;;;26.16;52.07
27304;BME280;14791;52.392;13.092;2022-07-22T06:49:08;101373.36;;;26.22;51.92
27304;BME280;14791;52.392;13.092;2022-07-22T06:51:37;101378.93;;;26.29;51.73
27304;BME280;14791;52.392;13.092;2022-07-22T06:54:06;101374.80;;;26.33;51.60
27304;BME280;14791;52.392;13.092;2022-07-22T06:56:35;101370.50;;;26.39;51.58
27304;BME280;14791;52.392;13.092;2022-07-22T06:59:06;101374.38;;;26.44;51.48
27304;BME280;14791;52.392;13.092;2022-07-22T07:01:36;101371.62;;;26.48;51.38
27304;BME280;14791;52.392;13.092;2022-07-22T07:04:05;101378.09;;;26.51;51.25
27304;BME280;14791;52.392;13.092;2022-07-22T07:06:34;101375.53;;;26.54;51.06
27304;BME280;14791;52.392;13.092;2022-07-22T07:09:08;101376.05;;;26.54;50.92
27304;BME280;14791;52.392;13.092;2022-07-22T07:11:37;101378.80;;;26.54;50.89
27304;BME280;14791;52.392;13.092;2022-07-22T07:14:08;101376.05;;;26.54;50.88
27304;BME280;14791;52.392;13.092;2022-07-22T07:16:37;101373.81;;;26.53;50.71
27304;BME280;14791;52.392;13.092;2022-07-22T07:19:06;101379.78;;;26.52;50.69
27304;BME280;14791;52.392;13.092;2022-07-22T07:21:35;101375.34;;;26.51;50.83
27304;BME280;14791;52.392;13.092;2022-07-22T07:24:04;101373.31;;;26.54;50.90
27304;BME280;14791;52.392;13.092;2022-07-22T07:26:33;101378.94;;;26.56;51.01
27304;BME280;14791;52.392;13.092;2022-07-22T07:29:02;101368.59;;;26.62;50.99
27304;BME280;14791;52.392;13.092;2022-07-22T07:31:36;101368.05;;;26.67;50.91
27304;BME280;14791;52.392;13.092;2022-07-22T07:34:06;101377.23;;;26.74;50.87
27304;BME280;14791;52.392;13.092;2022-07-22T07:36:35;101376.50;;;26.80;50.65
27304;BME280;14791;52.392;13.092;2022-07-22T07:39:05;101379.00;;;26.86;50.52
27304;BME280;14791;52.392;13.092;2022-07-22T07:41:34;101376.23;;;26.90;50.30
27304;BME280;14791;52.392;13.092;2022-07-22T07:44:03;101376.34;;;26.97;50.17
27304;BME280;14791;52.392;13.092;2022-07-22T07:46:32;101377.15;;;27.01;50.11
27304;BME280;14791;52.392;13.092;2022-07-22T07:49:01;101385.80;;;27.09;49.97
27304;BME280;14791;52.392;13.092;2022-07-22T07:51:30;101380.42;;;27.15;49.85
27304;BME280;14791;52.392;13.092;2022-07-22T07:53:59;101368.19;;;27.22;49.73
27304;BME280;14791;52.392;13.092;2022-07-22T07:56:28;101376.66;;;27.31;49.56
27304;BME280;14791;52.392;13.092;2022-07-22T07:58:57;101377.60;;;27.39;49.52
27304;BME280;14791;52.392;13.092;2022-07-22T08:01:26;101377.84;;;27.48;49.41
27304;BME280;14791;52.392;13.092;2022-07-22T08:03:55;101379.13;;;27.56;49.19
27304;BME280;14791;52.392;13.092;2022-07-22T08:06:24;101383.13;;;27.64;48.87
27304;BME280;14791;52.392;13.092;2022-07-22T08:08:53;101382.68;;;27.71;48.75
27304;BME280;14791;52.392;13.092;2022-07-22T08:11:24;101380.88;;;27.78;48.69
27304;BME280;14791;52.392;13.092;2022-07-22T08:13:54;101380.99;;;27.85;48.61
27304;BME280;14791;52.392;13.092;2022-07-22T08:16:41;101381.70;;;27.94;48.57
27304;BME280;14791;52.392;13.092;2022-07-22T08:19:10;101379.04;;;28.00;48.55
27304;BME280;14791;52.392;13.092;2022-07-22T08:21:39;101388.55;;;28.09;48.07
27304;BME280;14791;52.392;13.092;2022-07-22T08:24:19;101383.81;;;28.13;47.53
27304;BME280;14791;52.392;13.092;2022-07-22T08:26:49;101383.69;;;28.11;47.32
27304;BME280;14791;52.392;13.092;2022-07-22T08:29:18;101390.55;;;28.11;47.28
27304;BME280;14791;52.392;13.092;2022-07-22T08:31:47;101387.31;;;28.11;47.34
27304;BME280;14791;52.392;13.092;2022-07-22T08:34:17;101382.08;;;28.16;47.48
27304;BME280;14791;52.392;13.092;2022-07-22T08:36:46;101383.00;;;28.24;47.54
27304;BME280;14791;52.392;13.092;2022-07-22T08:39:16;101384.89;;;28.34;47.46
27304;BME280;14791;52.392;13.092;2022-07-22T08:41:45;101387.46;;;28.46;47.21
27304;BME280;14791;52.392;13.092;2022-07-22T08:44:14;101385.22;;;28.56;46.80
27304;BME280;14791;52.392;13.092;2022-07-22T08:46:45;101389.94;;;28.62;46.56
27304;BME280;14791;52.392;13.092;2022-07-22T08:49:18;101387.98;;;28.67;46.46
27304;BME280;14791;52.392;13.092;2022-07-22T08:51:58;101391.69;;;28.70;46.30
27304;BME280;14791;52.392;13.092;2022-07-22T08:54:28;101389.16;;;28.69;46.20
27304;BME280;14791;52.392;13.092;2022-07-22T08:56:59;101399.09;;;28.70;46.04
27304;BME280;14791;52.392;13.092;2022-07-22T08:59:28;101399.50;;;28.67;45.93
27304;BME280;14791;52.392;13.092;2022-07-22T09:02:09;101400.63;;;28.61;45.71
27304;BME280;14791;52.392;13.092;2022-07-22T09:07:27;101397.45;;;28.43;46.02
27304;BME280;14791;52.392;13.092;2022-07-22T09:09:59;101408.42;;;28.32;46.34
27304;BME280;14791;52.392;13.092;2022-07-22T09:12:57;101407.37;;;28.23;46.65
27304;BME280;14791;52.392;13.092;2022-07-22T09:15:31;101411.62;;;28.14;47.03
27304;BME280;14791;52.392;13.092;2022-07-22T09:18:02;101413.39;;;28.11;47.30
27304;BME280;14791;52.392;13.092;2022-07-22T09:20:36;101409.41;;;28.14;47.48
27304;BME280;14791;52.392;13.092;2022-07-22T09:23:23;101411.89;;;28.19;47.56
27304;BME280;14791;52.392;13.092;2022-07-22T09:25:53;101410.59;;;28.26;47.67
27304;BME280;14791;52.392;13.092;2022-07-22T09:28:27;101408.36;;;28.36;47.55
27304;BME280;14791;52.392;13.092;2022-07-22T09:31:33;101407.72;;;28.45;47.65
27304;BME280;14791;52.392;13.092;2022-07-22T09:34:00;101417.17;;;28.57;47.58
27304;BME280;14791;52.392;13.092;2022-07-22T09:36:31;101416.65;;;28.69;47.36
27304;BME280;14791;52.392;13.092;2022-07-22T09:39:00;101420.20;;;28.80;46.95
27304;BME280;14791;52.392;13.092;2022-07-22T09:41:29;101419.99;;;28.92;46.71
27304;BME280;14791;52.392;13.092;2022-07-22T09:44:06;101414.67;;;29.01;46.63
27304;BME280;14791;52.392;13.092;2022-07-22T09:46:36;101411.41;;;29.13;46.48
27304;BME280;14791;52.392;13.092;2022-07-22T09:49:07;101413.61;;;29.24;46.22
27304;BME280;14791;52.392;13.092;2022-07-22T09:51:46;101425.89;;;29.28;46.01
27304;BME280;14791;52.392;13.092;2022-07-22T09:54:23;101420.01;;;29.31;45.74
27304;BME280;14791;52.392;13.092;2022-07-22T09:56:52;101415.16;;;29.33;45.50
27304;BME280;14791;52.392;13.092;2022-07-22T09:59:23;101416.31;;;29.35;45.30
27304;BME280;14791;52.392;13.092;2022-07-22T10:01:58;101414.09;;;29.34;45.40
27304;BME280;14791;52.392;13.092;2022-07-22T10:04:31;101421.20;;;29.39;45.64
27304;BME280;14791;52.392;13.092;2022-07-22T10:07:01;101415.22;;;29.46;45.65
27304;BME280;14791;52.392;13.092;2022-07-22T10:09:32;101417.81;;;29.55;45.50
27304;BME280;14791;52.392;13.092;2022-07-22T10:12:02;101412.13;;;29.63;45.37
27304;BME280;14791;52.392;13.092;2022-07-22T10:14:33;101411.36;;;29.69;45.17
27304;BME280;14791;52.392;13.092;2022-07-22T10:17:03;101414.34;;;29.74;44.95
27304;BME280;14791;52.392;13.092;2022-07-22T10:19:33;101416.48;;;29.79;44.84
27304;BME280;14791;52.392;13.092;2022-07-22T10:22:02;101402.83;;;29.81;44.81
27304;BME280;14791;52.392;13.092;2022-07-22T10:24:31;101412.58;;;29.90;44.89
27304;BME280;14791;52.392;13.092;2022-07-22T10:27:01;101415.70;;;29.98;44.74
27304;BME280;14791;52.392;13.092;2022-07-22T10:29:38;101410.84;;;30.07;44.64
27304;BME280;14791;52.392;13.092;2022-07-22T10:37:44;101418.94;;;30.15;44.42
27304;BME280;14791;52.392;13.092;2022-07-22T10:40:21;101412.78;;;30.13;44.48
27304;BME280;14791;52.392;13.092;2022-07-22T10:43:04;101415.34;;;30.15;44.33
27304;BME280;14791;52.392;13.092;2022-07-22T10:48:10;101415.11;;;30.16;44.21
27304;BME280;14791;52.392;13.092;2022-07-22T10:50:41;101420.19;;;30.19;44.05
27304;BME280;14791;52.392;13.092;2022-07-22T10:53:13;101418.08;;;30.21;43.96
27304;BME280;14791;52.392;13.092;2022-07-22T10:56:00;101416.66;;;30.25;44.04
27304;BME280;14791;52.392;13.092;2022-07-22T11:01:08;101418.38;;;30.40;43.87
27304;BME280;14791;52.392;13.092;2022-07-22T11:03:38;101424.95;;;30.45;43.69
27304;BME280;14791;52.392;13.092;2022-07-22T11:06:32;101421.56;;;30.50;43.44
27304;BME280;14791;52.392;13.092;2022-07-22T11:09:08;101423.58;;;30.52;43.33
27304;BME280;14791;52.392;13.092;2022-07-22T11:11:43;101431.42;;;30.55;43.51
27304;BME280;14791;52.392;13.092;2022-07-22T11:14:23;101424.98;;;30.59;43.57
27304;BME280;14791;52.392;13.092;2022-07-22T11:17:05;101422.88;;;30.67;43.37
27304;BME280;14791;52.392;13.092;2022-07-22T11:19:35;101423.83;;;30.77;43.12
27304;BME280;14791;52.392;13.092;2022-07-22T11:22:09;101423.09;;;30.86;42.93
27304;BME280;14791;52.392;13.092;2022-07-22T11:24:40;101422.16;;;30.96;42.68
27304;BME280;14791;52.392;13.092;2022-07-22T11:27:17;101423.61;;;31.05;42.63
27304;BME280;14791;52.392;13.092;2022-07-22T11:29:42;101419.91;;;31.15;42.36
27304;BME280;14791;52.392;13.092;2022-07-22T11:32:14;101416.91;;;31.24;42.22
27304;BME280;14791;52.392;13.092;2022-07-22T11:34:44;101409.67;;;31.29;42.06
27304;BME280;14791;52.392;13.092;2022-07-22T11:37:22;101414.14;;;31.37;41.94
27304;BME280;14791;52.392;13.092;2022-07-22T11:39:46;101411.81;;;31.41;41.66
27304;BME280;14791;52.392;13.092;2022-07-22T11:42:15;101412.23;;;31.44;41.43
27304;BME280;14791;52.392;13.092;2022-07-22T11:44:44;101416.68;;;31.45;41.29
27304;BME280;14791;52.392;13.092;2022-07-22T11:47:13;101412.64;;;31.48;41.16
27304;BME280;14791;52.392;13.092;2022-07-22T11:49:44;101411.89;;;31.50;41.07
27304;BME280;14791;52.392;13.092;2022-07-22T11:52:12;101404.25;;;31.52;40.80
27304;BME280;14791;52.392;13.092;2022-07-22T11:54:43;101407.75;;;31.50;40.58
27304;BME280;14791;52.392;13.092;2022-07-22T11:57:13;101415.64;;;31.46;40.50
27304;BME280;14791;52.392;13.092;2022-07-22T11:59:42;101401.94;;;31.42;40.51
27304;BME280;14791;52.392;13.092;2022-07-22T12:02:13;101409.48;;;31.44;40.60
27304;BME280;14791;52.392;13.092;2022-07-22T12:04:43;101408.59;;;31.50;40.55
27304;BME280;14791;52.392;13.092;2022-07-22T12:07:14;101407.50;;;31.58;40.36
27304;BME280;14791;52.392;13.092;2022-07-22T12:09:44;101403.34;;;31.65;40.35
27304;BME280;14791;52.392;13.092;2022-07-22T12:12:13;101403.95;;;31.73;40.13
27304;BME280;14791;52.392;13.092;2022-07-22T12:14:47;101409.75;;;31.81;39.85
27304;BME280;14791;52.392;13.092;2022-07-22T12:17:16;101414.41;;;31.87;39.54
27304;BME280;14791;52.392;13.092;2022-07-22T12:19:46;101407.51;;;31.87;39.44
27304;BME280;14791;52.392;13.092;2022-07-22T12:22:22;101406.85;;;31.92;39.54
27304;BME280;14791;52.392;13.092;2022-07-22T12:25:00;101410.91;;;32.12;39.58
27304;BME280;14791;52.392;13.092;2022-07-22T12:27:30;101403.78;;;32.52;39.98
27304;BME280;14791;52.392;13.092;2022-07-22T12:29:59;101408.62;;;33.07;39.91
27304;BME280;14791;52.392;13.092;2022-07-22T12:32:28;101402.92;;;33.63;39.49
27304;BME280;14791;52.392;13.092;2022-07-22T12:35:03;101404.70;;;34.06;38.77
27304;BME280;14791;52.392;13.092;2022-07-22T12:37:41;101410.98;;;34.32;37.99
27304;BME280;14791;52.392;13.092;2022-07-22T12:40:19;101412.59;;;34.51;37.43
27304;BME280;14791;52.392;13.092;2022-07-22T12:43:06;101412.00;;;34.70;36.95
27304;BME280;14791;52.392;13.092;2022-07-22T12:45:37;101408.19;;;34.74;36.41
27304;BME280;14791;52.392;13.092;2022-07-22T12:48:08;101421.97;;;34.60;36.17
27304;BME280;14791;52.392;13.092;2022-07-22T12:50:38;101417.27;;;34.39;36.00
27304;BME280;14791;52.392;13.092;2022-07-22T12:53:13;101411.64;;;34.16;35.99
27304;BME280;14791;52.392;13.092;2022-07-22T12:55:56;101407.68;;;33.93;36.25
27304;BME280;14791;52.392;13.092;2022-07-22T12:58:24;101412.81;;;33.99;36.83
27304;BME280;14791;52.392;13.092;2022-07-22T13:00:57;101418.39;;;34.29;37.17
27304;BME280;14791;52.392;13.092;2022-07-22T13:03:27;101416.09;;;34.68;36.93
27304;BME280;14791;52.392;13.092;2022-07-22T13:05:59;101424.46;;;35.15;36.58
27304;BME280;14791;52.392;13.092;2022-07-22T13:08:29;101425.46;;;35.70;36.08
27304;BME280;14791;52.392;13.092;2022-07-22T13:10:59;101418.25;;;36.27;35.43
27304;BME280;14791;52.392;13.092;2022-07-22T13:13:28;101416.37;;;36.78;34.62
27304;BME280;14791;52.392;13.092;2022-07-22T13:15:57;101415.73;;;37.24;34.04